Mount Tabor, Vermont
Current Conditions -  °F | °C
As of 7:35 AM on Monday 24 Nov 2014 (Local Time) from KRUT Reporting Station
Overcast Overcast  
Wind Chill:   Ceiling: 2200
Heat Index:   Visibility: 7mi
Dew Point:   Wind: 14mph
Humidity: 87%   Direction: 160°SSE
Pressure: 29.65"   Gusts: 20mph
Location:  43.3492°N, 72.9643°W
Report Text: KRUT 241235Z 16012G17KT 7SM SCT014 BKN022 OVC041 09/07 A2965 RMK AO1
Loading
Personal Weather Stations






























Interactive Weather Map New forecast layout! Learn more

10-Day Weather Forecast

Advertisements
Track Severe Weather on mobile